sensor_id;sensor_type;location;lat;lon;timestamp;temperature;humidity
418;DHT22;49;48.530;9.200;2023-06-26T00:02:15;25.40;23.00
418;DHT22;49;48.530;9.200;2023-06-26T00:05:00;25.30;23.50
418;DHT22;49;48.530;9.200;2023-06-26T00:10:30;25.20;24.20
418;DHT22;49;48.530;9.200;2023-06-26T00:13:01;25.10;24.70
418;DHT22;49;48.530;9.200;2023-06-26T00:15:42;25.00;24.60
418;DHT22;49;48.530;9.200;2023-06-26T00:18:25;25.10;24.60
418;DHT22;49;48.530;9.200;2023-06-26T00:20:58;25.00;24.50
418;DHT22;49;48.530;9.200;2023-06-26T00:23:31;24.80;24.40
418;DHT22;49;48.530;9.200;2023-06-26T00:26:06;25.00;24.80
418;DHT22;49;48.530;9.200;2023-06-26T00:28:47;25.00;24.50
418;DHT22;49;48.530;9.200;2023-06-26T00:31:20;24.90;24.70
418;DHT22;49;48.530;9.200;2023-06-26T00:34:04;25.00;25.00
418;DHT22;49;48.530;9.200;2023-06-26T00:36:45;24.90;25.00
418;DHT22;49;48.530;9.200;2023-06-26T00:39:17;24.90;25.30
418;DHT22;49;48.530;9.200;2023-06-26T00:42:05;24.90;25.30
418;DHT22;49;48.530;9.200;2023-06-26T00:44:45;24.80;25.30
418;DHT22;49;48.530;9.200;2023-06-26T00:47:19;24.80;26.10
418;DHT22;49;48.530;9.200;2023-06-26T00:49:51;24.80;25.50
418;DHT22;49;48.530;9.200;2023-06-26T00:52:29;24.70;25.80
418;DHT22;49;48.530;9.200;2023-06-26T00:55:00;24.80;25.80
418;DHT22;49;48.530;9.200;2023-06-26T00:57:49;24.50;26.60
418;DHT22;49;48.530;9.200;2023-06-26T01:00:32;24.30;27.00
418;DHT22;49;48.530;9.200;2023-06-26T01:03:06;24.00;27.60
418;DHT22;49;48.530;9.200;2023-06-26T01:05:45;23.70;28.60
418;DHT22;49;48.530;9.200;2023-06-26T01:08:24;23.70;28.20
418;DHT22;49;48.530;9.200;2023-06-26T01:11:00;23.50;29.30
418;DHT22;49;48.530;9.200;2023-06-26T01:13:58;23.60;29.40
418;DHT22;49;48.530;9.200;2023-06-26T01:16:36;23.40;29.50
418;DHT22;49;48.530;9.200;2023-06-26T01:19:24;23.70;29.40
418;DHT22;49;48.530;9.200;2023-06-26T01:22:12;23.30;31.10
418;DHT22;49;48.530;9.200;2023-06-26T01:25:10;22.90;32.40
418;DHT22;49;48.530;9.200;2023-06-26T01:27:52;22.90;33.80
418;DHT22;49;48.530;9.200;2023-06-26T01:41:17;22.90;32.90
418;DHT22;49;48.530;9.200;2023-06-26T01:44:01;23.40;32.00
418;DHT22;49;48.530;9.200;2023-06-26T01:46:54;22.70;35.30
418;DHT22;49;48.530;9.200;2023-06-26T01:49:31;22.40;36.60
418;DHT22;49;48.530;9.200;2023-06-26T01:52:07;22.50;36.60
418;DHT22;49;48.530;9.200;2023-06-26T01:54:42;22.60;36.80
418;DHT22;49;48.530;9.200;2023-06-26T01:57:55;22.70;36.30
418;DHT22;49;48.530;9.200;2023-06-26T02:00:40;22.70;35.70
418;DHT22;49;48.530;9.200;2023-06-26T02:03:19;22.50;36.40
418;DHT22;49;48.530;9.200;2023-06-26T02:05:56;22.50;37.30
418;DHT22;49;48.530;9.200;2023-06-26T02:08:44;22.30;38.60
418;DHT22;49;48.530;9.200;2023-06-26T02:11:17;22.10;40.70
418;DHT22;49;48.530;9.200;2023-06-26T02:14:14;21.90;42.40
418;DHT22;49;48.530;9.200;2023-06-26T02:16:50;21.90;43.30
418;DHT22;49;48.530;9.200;2023-06-26T02:19:26;21.80;42.70
418;DHT22;49;48.530;9.200;2023-06-26T02:21:53;21.90;42.50
418;DHT22;49;48.530;9.200;2023-06-26T02:24:20;22.10;41.00
418;DHT22;49;48.530;9.200;2023-06-26T02:26:50;22.50;39.40
418;DHT22;49;48.530;9.200;2023-06-26T02:29:31;22.60;38.10
418;DHT22;49;48.530;9.200;2023-06-26T02:32:04;22.70;37.60
418;DHT22;49;48.530;9.200;2023-06-26T02:34:44;22.90;35.80
418;DHT22;49;48.530;9.200;2023-06-26T02:37:43;22.70;35.70
418;DHT22;49;48.530;9.200;2023-06-26T02:40:21;23.10;34.40
418;DHT22;49;48.530;9.200;2023-06-26T02:43:03;22.90;34.20
418;DHT22;49;48.530;9.200;2023-06-26T02:46:09;22.90;34.90
418;DHT22;49;48.530;9.200;2023-06-26T02:51:45;22.30;37.90
418;DHT22;49;48.530;9.200;2023-06-26T02:54:37;22.30;38.70
418;DHT22;49;48.530;9.200;2023-06-26T02:57:14;22.10;39.50
418;DHT22;49;48.530;9.200;2023-06-26T02:59:49;21.90;40.10
418;DHT22;49;48.530;9.200;2023-06-26T03:02:21;21.70;41.40
418;DHT22;49;48.530;9.200;2023-06-26T03:05:06;21.30;43.40
418;DHT22;49;48.530;9.200;2023-06-26T03:07:40;21.50;44.10
418;DHT22;49;48.530;9.200;2023-06-26T03:10:22;21.50;43.80
418;DHT22;49;48.530;9.200;2023-06-26T03:13:10;21.30;45.70
418;DHT22;49;48.530;9.200;2023-06-26T03:15:52;21.20;46.70
418;DHT22;49;48.530;9.200;2023-06-26T03:18:37;21.20;47.30
418;DHT22;49;48.530;9.200;2023-06-26T03:21:22;21.00;50.30
418;DHT22;49;48.530;9.200;2023-06-26T03:23:59;20.90;50.10
418;DHT22;49;48.530;9.200;2023-06-26T03:26:30;20.70;51.50
418;DHT22;49;48.530;9.200;2023-06-26T03:29:14;21.00;50.80
418;DHT22;49;48.530;9.200;2023-06-26T03:31:46;21.00;50.40
418;DHT22;49;48.530;9.200;2023-06-26T03:34:22;21.00;50.00
418;DHT22;49;48.530;9.200;2023-06-26T03:36:57;21.30;47.80
418;DHT22;49;48.530;9.200;2023-06-26T03:39:29;21.20;47.60
418;DHT22;49;48.530;9.200;2023-06-26T03:42:10;21.30;45.70
418;DHT22;49;48.530;9.200;2023-06-26T03:44:56;21.60;44.00
418;DHT22;49;48.530;9.200;2023-06-26T03:47:29;21.70;42.30
418;DHT22;49;48.530;9.200;2023-06-26T03:50:04;21.90;41.20
418;DHT22;49;48.530;9.200;2023-06-26T03:52:50;21.90;41.00
418;DHT22;49;48.530;9.200;2023-06-26T03:55:26;22.10;40.10
418;DHT22;49;48.530;9.200;2023-06-26T03:58:05;22.00;39.10
418;DHT22;49;48.530;9.200;2023-06-26T04:00:41;22.00;39.10
418;DHT22;49;48.530;9.200;2023-06-26T04:03:17;21.90;40.80
418;DHT22;49;48.530;9.200;2023-06-26T04:05:54;22.00;39.10
418;DHT22;49;48.530;9.200;2023-06-26T04:08:28;22.00;39.10
418;DHT22;49;48.530;9.200;2023-06-26T04:11:00;22.40;36.60
418;DHT22;49;48.530;9.200;2023-06-26T04:13:30;22.70;36.40
418;DHT22;49;48.530;9.200;2023-06-26T04:16:01;22.90;34.30
418;DHT22;49;48.530;9.200;2023-06-26T04:18:44;23.20;31.60
418;DHT22;49;48.530;9.200;2023-06-26T04:21:34;23.20;31.10
418;DHT22;49;48.530;9.200;2023-06-26T04:24:08;22.80;32.30
418;DHT22;49;48.530;9.200;2023-06-26T04:26:40;22.70;32.90
418;DHT22;49;48.530;9.200;2023-06-26T04:29:26;22.60;33.80
418;DHT22;49;48.530;9.200;2023-06-26T04:32:04;22.50;35.20
418;DHT22;49;48.530;9.200;2023-06-26T04:34:41;22.10;36.10
418;DHT22;49;48.530;9.200;2023-06-26T04:37:30;22.20;36.60
418;DHT22;49;48.530;9.200;2023-06-26T04:39:58;22.30;36.30
418;DHT22;49;48.530;9.200;2023-06-26T04:42:44;22.60;34.50
418;DHT22;49;48.530;9.200;2023-06-26T04:45:14;22.30;35.20
418;DHT22;49;48.530;9.200;2023-06-26T04:48:01;22.40;36.30
418;DHT22;49;48.530;9.200;2023-06-26T04:50:45;22.40;36.60
418;DHT22;49;48.530;9.200;2023-06-26T04:53:23;22.60;36.00
418;DHT22;49;48.530;9.200;2023-06-26T04:55:51;23.00;32.60
418;DHT22;49;48.530;9.200;2023-06-26T04:58:18;23.10;32.60
418;DHT22;49;48.530;9.200;2023-06-26T05:00:50;23.10;32.60
418;DHT22;49;48.530;9.200;2023-06-26T05:03:18;23.30;32.20
418;DHT22;49;48.530;9.200;2023-06-26T05:05:46;23.30;31.50
418;DHT22;49;48.530;9.200;2023-06-26T05:08:14;23.40;32.50
418;DHT22;49;48.530;9.200;2023-06-26T05:10:43;23.30;32.60
418;DHT22;49;48.530;9.200;2023-06-26T05:13:10;23.40;32.70
418;DHT22;49;48.530;9.200;2023-06-26T05:15:40;23.60;32.00
418;DHT22;49;48.530;9.200;2023-06-26T05:18:08;23.70;31.40
418;DHT22;49;48.530;9.200;2023-06-26T05:20:37;23.70;32.10
418;DHT22;49;48.530;9.200;2023-06-26T05:23:05;24.00;31.20
418;DHT22;49;48.530;9.200;2023-06-26T05:25:33;24.30;30.10
418;DHT22;49;48.530;9.200;2023-06-26T05:28:02;24.90;28.70
418;DHT22;49;48.530;9.200;2023-06-26T05:30:31;25.30;27.60
418;DHT22;49;48.530;9.200;2023-06-26T05:33:00;25.30;27.20
418;DHT22;49;48.530;9.200;2023-06-26T05:35:29;25.70;25.70
418;DHT22;49;48.530;9.200;2023-06-26T05:37:57;26.00;25.00
418;DHT22;49;48.530;9.200;2023-06-26T05:40:25;26.10;24.90
418;DHT22;49;48.530;9.200;2023-06-26T05:42:53;26.40;24.30
418;DHT22;49;48.530;9.200;2023-06-26T05:45:21;27.10;22.90
418;DHT22;49;48.530;9.200;2023-06-26T05:47:48;28.60;20.30
418;DHT22;49;48.530;9.200;2023-06-26T05:50:18;29.90;19.40
418;DHT22;49;48.530;9.200;2023-06-26T05:52:46;31.30;17.60
418;DHT22;49;48.530;9.200;2023-06-26T05:55:13;32.60;13.80
418;DHT22;49;48.530;9.200;2023-06-26T05:57:44;33.10;13.30
418;DHT22;49;48.530;9.200;2023-06-26T06:00:13;33.40;13.30
418;DHT22;49;48.530;9.200;2023-06-26T06:02:44;33.80;10.90
418;DHT22;49;48.530;9.200;2023-06-26T06:05:13;33.90;11.00
418;DHT22;49;48.530;9.200;2023-06-26T06:07:40;34.10;11.30
418;DHT22;49;48.530;9.200;2023-06-26T06:10:09;34.70;10.30
418;DHT22;49;48.530;9.200;2023-06-26T06:12:40;35.10;9.30
418;DHT22;49;48.530;9.200;2023-06-26T06:15:08;34.90;9.70
418;DHT22;49;48.530;9.200;2023-06-26T06:17:36;34.80;10.00
418;DHT22;49;48.530;9.200;2023-06-26T06:20:05;35.40;8.20
418;DHT22;49;48.530;9.200;2023-06-26T06:22:33;36.00;8.50
418;DHT22;49;48.530;9.200;2023-06-26T06:25:00;35.80;8.40
418;DHT22;49;48.530;9.200;2023-06-26T06:27:27;35.70;8.30
418;DHT22;49;48.530;9.200;2023-06-26T06:29:55;36.20;8.40
418;DHT22;49;48.530;9.200;2023-06-26T06:32:24;37.40;7.20
418;DHT22;49;48.530;9.200;2023-06-26T06:34:51;38.40;5.20
418;DHT22;49;48.530;9.200;2023-06-26T06:37:20;39.00;5.00
418;DHT22;49;48.530;9.200;2023-06-26T06:39:47;39.60;4.00
418;DHT22;49;48.530;9.200;2023-06-26T06:42:14;40.20;2.80
418;DHT22;49;48.530;9.200;2023-06-26T06:44:41;39.90;2.80
418;DHT22;49;48.530;9.200;2023-06-26T06:47:11;39.50;3.20
418;DHT22;49;48.530;9.200;2023-06-26T06:49:38;39.60;3.80
418;DHT22;49;48.530;9.200;2023-06-26T06:52:05;39.90;3.00
418;DHT22;49;48.530;9.200;2023-06-26T06:54:51;40.50;2.50
418;DHT22;49;48.530;9.200;2023-06-26T06:57:18;40.90;2.30
418;DHT22;49;48.530;9.200;2023-06-26T06:59:46;40.90;2.10
418;DHT22;49;48.530;9.200;2023-06-26T07:02:14;41.70;1.50
418;DHT22;49;48.530;9.200;2023-06-26T07:04:45;41.80;1.30
418;DHT22;49;48.530;9.200;2023-06-26T07:07:13;41.70;1.20
418;DHT22;49;48.530;9.200;2023-06-26T07:09:42;42.50;1.00
418;DHT22;49;48.530;9.200;2023-06-26T07:12:09;42.70;1.00
418;DHT22;49;48.530;9.200;2023-06-26T07:14:39;43.00;1.00
418;DHT22;49;48.530;9.200;2023-06-26T07:17:06;43.10;1.00
418;DHT22;49;48.530;9.200;2023-06-26T07:19:35;42.90;1.00
418;DHT22;49;48.530;9.200;2023-06-26T07:22:04;42.80;1.00
418;DHT22;49;48.530;9.200;2023-06-26T07:24:31;43.30;1.00
418;DHT22;49;48.530;9.200;2023-06-26T07:27:02;43.70;1.00
418;DHT22;49;48.530;9.200;2023-06-26T07:29:32;44.40;1.00
418;DHT22;49;48.530;9.200;2023-06-26T07:32:02;44.50;1.00
418;DHT22;49;48.530;9.200;2023-06-26T07:34:29;44.20;1.00
418;DHT22;49;48.530;9.200;2023-06-26T07:36:58;43.60;1.00
418;DHT22;49;48.530;9.200;2023-06-26T07:39:25;43.30;1.00
418;DHT22;49;48.530;9.200;2023-06-26T07:41:53;43.00;1.00
418;DHT22;49;48.530;9.200;2023-06-26T07:44:22;43.00;1.00
418;DHT22;49;48.530;9.200;2023-06-26T07:46:49;43.60;1.00
418;DHT22;49;48.530;9.200;2023-06-26T07:49:18;43.50;1.00
418;DHT22;49;48.530;9.200;2023-06-26T07:51:45;43.20;1.00
418;DHT22;49;48.530;9.200;2023-06-26T07:54:12;42.80;1.00
418;DHT22;49;48.530;9.200;2023-06-26T07:56:56;42.60;1.00
418;DHT22;49;48.530;9.200;2023-06-26T07:59:27;42.50;1.00
418;DHT22;49;48.530;9.200;2023-06-26T08:01:57;42.70;1.00
418;DHT22;49;48.530;9.200;2023-06-26T08:04:30;43.20;1.00
418;DHT22;49;48.530;9.200;2023-06-26T08:06:58;43.10;1.00
418;DHT22;49;48.530;9.200;2023-06-26T08:09:26;42.90;1.00
418;DHT22;49;48.530;9.200;2023-06-26T08:11:54;41.70;1.00
418;DHT22;49;48.530;9.200;2023-06-26T08:14:21;40.70;1.00
418;DHT22;49;48.530;9.200;2023-06-26T08:16:50;41.20;1.00
418;DHT22;49;48.530;9.200;2023-06-26T08:19:18;42.00;1.00
418;DHT22;49;48.530;9.200;2023-06-26T08:21:47;41.60;1.00
418;DHT22;49;48.530;9.200;2023-06-26T08:24:14;41.00;1.00
418;DHT22;49;48.530;9.200;2023-06-26T08:26:45;41.20;1.00
418;DHT22;49;48.530;9.200;2023-06-26T08:29:13;41.30;1.00
418;DHT22;49;48.530;9.200;2023-06-26T08:31:41;41.40;1.00
418;DHT22;49;48.530;9.200;2023-06-26T08:34:10;41.70;1.00
418;DHT22;49;48.530;9.200;2023-06-26T08:36:37;41.40;1.00
418;DHT22;49;48.530;9.200;2023-06-26T08:39:04;40.90;1.00
418;DHT22;49;48.530;9.200;2023-06-26T08:41:32;41.20;1.00
418;DHT22;49;48.530;9.200;2023-06-26T08:44:02;41.50;1.00
418;DHT22;49;48.530;9.200;2023-06-26T08:46:30;41.70;1.00
418;DHT22;49;48.530;9.200;2023-06-26T08:49:01;41.70;1.00
418;DHT22;49;48.530;9.200;2023-06-26T08:51:30;41.50;1.00
418;DHT22;49;48.530;9.200;2023-06-26T08:54:00;41.80;1.00
418;DHT22;49;48.530;9.200;2023-06-26T08:56:30;41.70;1.00
418;DHT22;49;48.530;9.200;2023-06-26T08:58:58;41.60;1.00
418;DHT22;49;48.530;9.200;2023-06-26T09:01:25;40.90;1.00
418;DHT22;49;48.530;9.200;2023-06-26T09:03:52;40.00;1.00
418;DHT22;49;48.530;9.200;2023-06-26T09:06:20;39.90;1.00
418;DHT22;49;48.530;9.200;2023-06-26T09:08:49;40.60;1.00
418;DHT22;49;48.530;9.200;2023-06-26T09:11:16;40.80;1.00
418;DHT22;49;48.530;9.200;2023-06-26T09:13:43;40.80;1.00
418;DHT22;49;48.530;9.200;2023-06-26T09:16:13;41.10;1.00
418;DHT22;49;48.530;9.200;2023-06-26T09:18:45;41.10;1.00
418;DHT22;49;48.530;9.200;2023-06-26T09:21:13;40.20;1.00
418;DHT22;49;48.530;9.200;2023-06-26T09:23:40;40.30;1.00
418;DHT22;49;48.530;9.200;2023-06-26T09:26:11;39.90;1.00
418;DHT22;49;48.530;9.200;2023-06-26T09:28:38;40.00;1.00
418;DHT22;49;48.530;9.200;2023-06-26T09:31:07;40.00;1.00
418;DHT22;49;48.530;9.200;2023-06-26T09:33:39;39.70;1.10
418;DHT22;49;48.530;9.200;2023-06-26T09:36:09;38.80;1.50
418;DHT22;49;48.530;9.200;2023-06-26T09:38:36;38.70;1.00
418;DHT22;49;48.530;9.200;2023-06-26T09:41:04;38.70;1.00
418;DHT22;49;48.530;9.200;2023-06-26T09:43:32;39.10;1.60
418;DHT22;49;48.530;9.200;2023-06-26T09:46:00;39.30;1.00
418;DHT22;49;48.530;9.200;2023-06-26T09:48:28;39.80;1.00
418;DHT22;49;48.530;9.200;2023-06-26T09:50:55;39.20;1.00
418;DHT22;49;48.530;9.200;2023-06-26T09:53:22;38.20;1.20
418;DHT22;49;48.530;9.200;2023-06-26T09:55:50;38.00;1.80
418;DHT22;49;48.530;9.200;2023-06-26T09:58:18;37.50;2.60
418;DHT22;49;48.530;9.200;2023-06-26T10:00:46;37.90;1.90
418;DHT22;49;48.530;9.200;2023-06-26T10:03:13;38.00;2.50
418;DHT22;49;48.530;9.200;2023-06-26T10:05:40;37.90;2.10
418;DHT22;49;48.530;9.200;2023-06-26T10:08:12;38.40;1.30
418;DHT22;49;48.530;9.200;2023-06-26T10:10:40;38.40;1.70
418;DHT22;49;48.530;9.200;2023-06-26T10:13:13;38.70;1.20
418;DHT22;49;48.530;9.200;2023-06-26T10:15:43;38.50;1.30
418;DHT22;49;48.530;9.200;2023-06-26T10:18:13;38.40;1.40
418;DHT22;49;48.530;9.200;2023-06-26T10:20:43;38.90;1.40
418;DHT22;49;48.530;9.200;2023-06-26T10:23:14;39.00;1.70
418;DHT22;49;48.530;9.200;2023-06-26T10:25:44;38.90;1.50
418;DHT22;49;48.530;9.200;2023-06-26T10:28:13;38.80;1.40
418;DHT22;49;48.530;9.200;2023-06-26T10:30:43;38.70;1.00
418;DHT22;49;48.530;9.200;2023-06-26T10:33:12;38.90;1.00
418;DHT22;49;48.530;9.200;2023-06-26T10:35:43;39.10;1.00
418;DHT22;49;48.530;9.200;2023-06-26T10:38:11;39.00;1.40
418;DHT22;49;48.530;9.200;2023-06-26T10:40:43;38.20;1.50
418;DHT22;49;48.530;9.200;2023-06-26T10:43:12;36.70;2.50
418;DHT22;49;48.530;9.200;2023-06-26T10:45:45;36.80;2.00
418;DHT22;49;48.530;9.200;2023-06-26T10:51:47;37.00;2.60
418;DHT22;49;48.530;9.200;2023-06-26T10:54:22;37.70;1.80
418;DHT22;49;48.530;9.200;2023-06-26T10:56:58;37.60;1.80
418;DHT22;49;48.530;9.200;2023-06-26T10:59:29;37.30;2.10
418;DHT22;49;48.530;9.200;2023-06-26T11:02:07;37.30;1.80
418;DHT22;49;48.530;9.200;2023-06-26T11:04:39;37.60;2.20
418;DHT22;49;48.530;9.200;2023-06-26T11:07:29;37.80;1.70
418;DHT22;49;48.530;9.200;2023-06-26T11:10:11;37.30;3.20
418;DHT22;49;48.530;9.200;2023-06-26T11:12:55;37.30;2.60
418;DHT22;49;48.530;9.200;2023-06-26T11:15:43;37.10;2.60
418;DHT22;49;48.530;9.200;2023-06-26T11:18:11;36.70;3.30
418;DHT22;49;48.530;9.200;2023-06-26T11:20:50;36.50;4.00
418;DHT22;49;48.530;9.200;2023-06-26T11:23:45;36.40;4.00
418;DHT22;49;48.530;9.200;2023-06-26T11:28:53;36.40;5.20
418;DHT22;49;48.530;9.200;2023-06-26T11:31:40;36.50;4.50
418;DHT22;49;48.530;9.200;2023-06-26T11:34:11;36.30;5.00
418;DHT22;49;48.530;9.200;2023-06-26T11:36:56;36.50;4.70
418;DHT22;49;48.530;9.200;2023-06-26T11:39:50;36.80;4.40
418;DHT22;49;48.530;9.200;2023-06-26T11:42:21;36.70;4.70
418;DHT22;49;48.530;9.200;2023-06-26T11:44:53;36.60;5.40
418;DHT22;49;48.530;9.200;2023-06-26T11:47:28;36.60;5.30
418;DHT22;49;48.530;9.200;2023-06-26T11:50:14;36.30;5.40
418;DHT22;49;48.530;9.200;2023-06-26T11:52:49;36.00;5.80
418;DHT22;49;48.530;9.200;2023-06-26T11:55:57;35.80;6.40
418;DHT22;49;48.530;9.200;2023-06-26T11:58:32;35.40;5.90
418;DHT22;49;48.530;9.200;2023-06-26T12:01:19;35.90;6.20
418;DHT22;49;48.530;9.200;2023-06-26T12:03:54;36.20;5.40
418;DHT22;49;48.530;9.200;2023-06-26T12:06:35;36.40;5.30
418;DHT22;49;48.530;9.200;2023-06-26T12:09:18;36.70;5.50
418;DHT22;49;48.530;9.200;2023-06-26T12:12:22;36.50;5.60
418;DHT22;49;48.530;9.200;2023-06-26T12:14:51;36.40;4.80
418;DHT22;49;48.530;9.200;2023-06-26T12:17:26;36.60;5.20
418;DHT22;49;48.530;9.200;2023-06-26T12:19:59;36.60;5.00
418;DHT22;49;48.530;9.200;2023-06-26T12:22:34;36.50;5.60
418;DHT22;49;48.530;9.200;2023-06-26T12:25:14;36.40;4.70
418;DHT22;49;48.530;9.200;2023-06-26T12:27:51;36.20;5.30
418;DHT22;49;48.530;9.200;2023-06-26T12:30:23;36.40;4.90
418;DHT22;49;48.530;9.200;2023-06-26T12:32:58;36.70;5.00
418;DHT22;49;48.530;9.200;2023-06-26T12:35:33;36.40;5.10
418;DHT22;49;48.530;9.200;2023-06-26T12:38:15;36.10;5.70
418;DHT22;49;48.530;9.200;2023-06-26T12:40:47;36.10;5.60
418;DHT22;49;48.530;9.200;2023-06-26T12:43:26;35.70;5.90
418;DHT22;49;48.530;9.200;2023-06-26T12:45:56;35.60;6.30
418;DHT22;49;48.530;9.200;2023-06-26T12:48:39;35.70;6.60
418;DHT22;49;48.530;9.200;2023-06-26T12:51:34;35.70;6.60
418;DHT22;49;48.530;9.200;2023-06-26T12:54:15;35.60;7.00
418;DHT22;49;48.530;9.200;2023-06-26T12:56:44;35.70;6.90
418;DHT22;49;48.530;9.200;2023-06-26T12:59:22;35.80;6.90
418;DHT22;49;48.530;9.200;2023-06-26T13:01:49;35.60;7.50
418;DHT22;49;48.530;9.200;2023-06-26T13:04:21;35.40;8.20
418;DHT22;49;48.530;9.200;2023-06-26T13:06:48;35.40;8.20
418;DHT22;49;48.530;9.200;2023-06-26T13:09:15;35.60;8.00
418;DHT22;49;48.530;9.200;2023-06-26T13:11:45;35.60;8.30
418;DHT22;49;48.530;9.200;2023-06-26T13:14:14;36.00;7.80
418;DHT22;49;48.530;9.200;2023-06-26T13:16:49;36.30;7.10
418;DHT22;49;48.530;9.200;2023-06-26T13:19:16;36.30;7.10
418;DHT22;49;48.530;9.200;2023-06-26T13:21:43;36.20;7.00
418;DHT22;49;48.530;9.200;2023-06-26T13:24:11;36.00;7.60
418;DHT22;49;48.530;9.200;2023-06-26T13:26:39;35.60;8.00
418;DHT22;49;48.530;9.200;2023-06-26T13:29:08;35.30;8.10
418;DHT22;49;48.530;9.200;2023-06-26T13:31:35;35.40;8.20
418;DHT22;49;48.530;9.200;2023-06-26T13:34:08;35.20;8.10
418;DHT22;49;48.530;9.200;2023-06-26T13:36:38;35.20;8.10
418;DHT22;49;48.530;9.200;2023-06-26T13:39:11;35.10;8.80
418;DHT22;49;48.530;9.200;2023-06-26T13:41:39;35.40;8.90
418;DHT22;49;48.530;9.200;2023-06-26T13:44:08;35.30;8.10
418;DHT22;49;48.530;9.200;2023-06-26T13:46:37;35.40;8.20
418;DHT22;49;48.530;9.200;2023-06-26T13:49:08;35.40;8.50
418;DHT22;49;48.530;9.200;2023-06-26T13:51:38;35.10;8.00
418;DHT22;49;48.530;9.200;2023-06-26T13:54:11;35.00;8.80
418;DHT22;49;48.530;9.200;2023-06-26T13:56:39;35.20;8.20
418;DHT22;49;48.530;9.200;2023-06-26T13:59:08;34.70;9.20
418;DHT22;49;48.530;9.200;2023-06-26T14:01:37;34.50;9.60
418;DHT22;49;48.530;9.200;2023-06-26T14:04:12;34.50;9.50
418;DHT22;49;48.530;9.200;2023-06-26T14:06:40;34.30;9.60
418;DHT22;49;48.530;9.200;2023-06-26T14:09:19;34.10;9.60
418;DHT22;49;48.530;9.200;2023-06-26T14:12:04;34.50;9.40
418;DHT22;49;48.530;9.200;2023-06-26T14:14:37;34.70;9.20
418;DHT22;49;48.530;9.200;2023-06-26T14:17:09;34.50;9.60
418;DHT22;49;48.530;9.200;2023-06-26T14:19:50;34.90;8.90
418;DHT22;49;48.530;9.200;2023-06-26T14:22:27;34.90;8.70
418;DHT22;49;48.530;9.200;2023-06-26T14:24:54;35.00;9.00
418;DHT22;49;48.530;9.200;2023-06-26T14:27:27;34.60;8.30
418;DHT22;49;48.530;9.200;2023-06-26T14:29:59;34.10;8.60
418;DHT22;49;48.530;9.200;2023-06-26T14:32:29;33.90;8.40
418;DHT22;49;48.530;9.200;2023-06-26T14:35:01;34.10;8.60
418;DHT22;49;48.530;9.200;2023-06-26T14:37:35;34.20;8.20
418;DHT22;49;48.530;9.200;2023-06-26T14:40:15;34.20;8.80
418;DHT22;49;48.530;9.200;2023-06-26T14:42:49;34.40;8.60
418;DHT22;49;48.530;9.200;2023-06-26T14:45:37;34.50;7.70
418;DHT22;49;48.530;9.200;2023-06-26T14:48:08;34.40;7.60
418;DHT22;49;48.530;9.200;2023-06-26T14:51:02;34.20;8.20
418;DHT22;49;48.530;9.200;2023-06-26T14:53:31;34.30;7.80
418;DHT22;49;48.530;9.200;2023-06-26T14:56:10;34.10;8.00
418;DHT22;49;48.530;9.200;2023-06-26T14:58:43;34.10;7.50
418;DHT22;49;48.530;9.200;2023-06-26T15:01:21;33.70;7.90
418;DHT22;49;48.530;9.200;2023-06-26T15:03:59;33.30;8.40
418;DHT22;49;48.530;9.200;2023-06-26T15:06:37;33.30;8.60
418;DHT22;49;48.530;9.200;2023-06-26T15:09:15;33.70;8.70
418;DHT22;49;48.530;9.200;2023-06-26T15:12:01;33.60;8.10
418;DHT22;49;48.530;9.200;2023-06-26T15:14:29;33.60;7.20
418;DHT22;49;48.530;9.200;2023-06-26T15:17:04;33.20;7.90
418;DHT22;49;48.530;9.200;2023-06-26T15:19:37;33.10;7.70
418;DHT22;49;48.530;9.200;2023-06-26T15:22:21;33.00;8.60
418;DHT22;49;48.530;9.200;2023-06-26T15:25:02;33.10;8.30
418;DHT22;49;48.530;9.200;2023-06-26T15:27:36;33.30;7.60
418;DHT22;49;48.530;9.200;2023-06-26T15:30:12;33.00;7.90
418;DHT22;49;48.530;9.200;2023-06-26T15:32:41;33.00;8.70
418;DHT22;49;48.530;9.200;2023-06-26T15:35:09;33.40;8.70
418;DHT22;49;48.530;9.200;2023-06-26T15:37:38;33.70;8.20
418;DHT22;49;48.530;9.200;2023-06-26T15:40:13;33.80;7.40
418;DHT22;49;48.530;9.200;2023-06-26T15:42:48;34.10;7.80
418;DHT22;49;48.530;9.200;2023-06-26T15:45:16;34.10;7.50
418;DHT22;49;48.530;9.200;2023-06-26T15:47:50;33.90;7.40
418;DHT22;49;48.530;9.200;2023-06-26T15:50:17;33.80;7.30
418;DHT22;49;48.530;9.200;2023-06-26T15:52:48;33.60;7.80
418;DHT22;49;48.530;9.200;2023-06-26T15:55:18;33.70;7.60
418;DHT22;49;48.530;9.200;2023-06-26T15:57:56;33.50;8.40
418;DHT22;49;48.530;9.200;2023-06-26T16:00:27;33.50;8.70
418;DHT22;49;48.530;9.200;2023-06-26T16:02:57;33.50;8.60
418;DHT22;49;48.530;9.200;2023-06-26T16:05:25;33.20;8.50
418;DHT22;49;48.530;9.200;2023-06-26T16:07:53;32.90;9.10
418;DHT22;49;48.530;9.200;2023-06-26T16:10:21;32.70;9.30
418;DHT22;49;48.530;9.200;2023-06-26T16:12:54;32.60;9.50
418;DHT22;49;48.530;9.200;2023-06-26T16:15:21;32.70;9.40
418;DHT22;49;48.530;9.200;2023-06-26T16:17:50;33.00;9.30
418;DHT22;49;48.530;9.200;2023-06-26T16:20:21;33.00;9.20
418;DHT22;49;48.530;9.200;2023-06-26T16:25:25;32.90;9.30
418;DHT22;49;48.530;9.200;2023-06-26T16:27:54;32.60;9.40
418;DHT22;49;48.530;9.200;2023-06-26T16:30:21;32.50;9.90
418;DHT22;49;48.530;9.200;2023-06-26T16:32:51;32.40;9.90
418;DHT22;49;48.530;9.200;2023-06-26T16:35:26;32.10;10.00
418;DHT22;49;48.530;9.200;2023-06-26T16:37:57;31.90;10.30
418;DHT22;49;48.530;9.200;2023-06-26T16:40:34;31.90;10.40
418;DHT22;49;48.530;9.200;2023-06-26T16:43:24;31.80;10.70
418;DHT22;49;48.530;9.200;2023-06-26T16:45:52;31.70;10.70
418;DHT22;49;48.530;9.200;2023-06-26T16:48:23;31.80;10.70
418;DHT22;49;48.530;9.200;2023-06-26T16:50:58;31.60;10.90
418;DHT22;49;48.530;9.200;2023-06-26T16:53:30;31.30;10.80
418;DHT22;49;48.530;9.200;2023-06-26T16:56:03;31.20;10.60
418;DHT22;49;48.530;9.200;2023-06-26T16:58:38;31.20;10.70
418;DHT22;49;48.530;9.200;2023-06-26T17:01:06;31.00;11.30
418;DHT22;49;48.530;9.200;2023-06-26T17:03:36;31.00;12.30
418;DHT22;49;48.530;9.200;2023-06-26T17:06:06;30.70;11.70
418;DHT22;49;48.530;9.200;2023-06-26T17:08:36;30.50;12.00
418;DHT22;49;48.530;9.200;2023-06-26T17:11:14;30.40;11.80
418;DHT22;49;48.530;9.200;2023-06-26T17:13:47;30.40;11.20
418;DHT22;49;48.530;9.200;2023-06-26T17:16:21;30.50;10.50
418;DHT22;49;48.530;9.200;2023-06-26T17:18:56;30.40;11.30
418;DHT22;49;48.530;9.200;2023-06-26T17:21:28;30.20;10.60
418;DHT22;49;48.530;9.200;2023-06-26T17:23:58;29.90;11.70
418;DHT22;49;48.530;9.200;2023-06-26T17:26:34;29.90;10.80
418;DHT22;49;48.530;9.200;2023-06-26T17:29:15;30.00;10.20
418;DHT22;49;48.530;9.200;2023-06-26T17:31:48;30.00;10.30
418;DHT22;49;48.530;9.200;2023-06-26T17:34:25;30.10;10.00
418;DHT22;49;48.530;9.200;2023-06-26T17:36:54;30.30;9.40
418;DHT22;49;48.530;9.200;2023-06-26T17:39:22;30.40;9.40
418;DHT22;49;48.530;9.200;2023-06-26T17:41:55;30.60;8.70
418;DHT22;49;48.530;9.200;2023-06-26T17:44:30;30.50;8.70
418;DHT22;49;48.530;9.200;2023-06-26T17:47:10;30.60;8.60
418;DHT22;49;48.530;9.200;2023-06-26T17:49:42;30.50;8.30
418;DHT22;49;48.530;9.200;2023-06-26T17:52:28;30.60;8.20
418;DHT22;49;48.530;9.200;2023-06-26T17:54:56;30.90;8.00
418;DHT22;49;48.530;9.200;2023-06-26T17:57:34;31.00;7.70
418;DHT22;49;48.530;9.200;2023-06-26T18:00:01;31.10;7.40
418;DHT22;49;48.530;9.200;2023-06-26T18:02:30;31.20;7.20
418;DHT22;49;48.530;9.200;2023-06-26T18:05:00;31.00;7.00
418;DHT22;49;48.530;9.200;2023-06-26T18:07:28;30.80;6.80
418;DHT22;49;48.530;9.200;2023-06-26T18:09:58;30.60;7.10
418;DHT22;49;48.530;9.200;2023-06-26T18:12:44;30.60;7.00
418;DHT22;49;48.530;9.200;2023-06-26T18:15:23;30.20;6.90